createdAt,value
2023-02-03T00:00:58.904Z,70.74
2023-02-03T00:01:58.918Z,69.93
2023-02-03T00:02:58.945Z,70.42
2023-02-03T00:03:58.893Z,71.54
2023-02-03T00:04:58.854Z,70.58
2023-02-03T00:05:58.852Z,72.51
2023-02-03T00:06:58.847Z,74.77
2023-02-03T00:07:58.871Z,71.87
2023-02-03T00:08:58.830Z,70.25
2023-02-03T00:09:58.816Z,72.99
2023-02-03T00:10:58.793Z,71.38
2023-02-03T00:11:58.786Z,71.54
2023-02-03T00:12:58.780Z,69.93
2023-02-03T00:13:58.827Z,71.22
2023-02-03T00:14:58.745Z,69.29
2023-02-03T00:15:58.755Z,68.64
2023-02-03T00:16:58.727Z,69.61
2023-02-03T00:17:58.721Z,69.93
2023-02-03T00:18:58.724Z,68.96
2023-02-03T00:19:58.705Z,68.16
2023-02-03T00:20:58.699Z,70.25
2023-02-03T00:21:58.677Z,68.80
2023-02-03T00:22:58.660Z,69.45
2023-02-03T00:23:58.694Z,66.71
2023-02-03T00:24:58.635Z,70.09
2023-02-03T00:25:58.636Z,68.48
2023-02-03T00:26:58.608Z,73.32
2023-02-03T00:27:58.640Z,69.45
2023-02-03T00:28:58.613Z,67.84
2023-02-03T00:29:58.585Z,69.45
2023-02-03T00:30:58.569Z,67.35
2023-02-03T00:31:58.634Z,70.25
2023-02-03T00:32:58.548Z,68.48
2023-02-03T00:33:58.632Z,69.13
2023-02-03T00:34:58.526Z,67.51
2023-02-03T00:35:58.528Z,69.77
2023-02-03T00:36:58.508Z,73.96
2023-02-03T00:37:58.507Z,71.06
2023-02-03T00:38:58.522Z,69.93
2023-02-03T00:39:58.503Z,68.96
2023-02-03T00:40:59.474Z,67.84
2023-02-03T00:41:58.455Z,68.00
2023-02-03T00:42:58.455Z,68.00
2023-02-03T00:43:58.464Z,67.84
2023-02-03T00:44:58.404Z,67.84
2023-02-03T00:45:58.528Z,70.09
2023-02-03T00:46:58.428Z,68.96
2023-02-03T00:47:58.392Z,67.84
2023-02-03T00:48:58.375Z,68.64
2023-02-03T00:49:59.349Z,68.80
2023-02-03T00:50:58.327Z,67.51
2023-02-03T00:51:59.333Z,69.13
2023-02-03T00:52:58.328Z,68.48
2023-02-03T00:53:58.326Z,70.58
2023-02-03T00:54:58.285Z,69.61
2023-02-03T00:55:58.290Z,67.51
2023-02-03T00:56:58.300Z,70.25
2023-02-03T00:57:58.263Z,65.58
2023-02-03T00:58:58.254Z,67.68
2023-02-03T00:59:58.243Z,68.00
2023-02-03T01:00:58.271Z,70.09
2023-02-03T01:01:58.251Z,69.77
2023-02-03T01:02:58.196Z,71.87
2023-02-03T01:03:58.213Z,67.03
2023-02-03T01:04:58.189Z,69.45
2023-02-03T01:05:58.207Z,68.64
2023-02-03T01:06:58.172Z,68.16
2023-02-03T01:07:58.146Z,68.80
2023-02-03T01:08:59.165Z,71.06
2023-02-03T01:09:58.122Z,68.96
2023-02-03T01:10:58.120Z,70.90
2023-02-03T01:11:58.109Z,67.19
2023-02-03T01:12:58.106Z,69.29
2023-02-03T01:13:58.098Z,69.29
2023-02-03T01:14:58.060Z,68.48
2023-02-03T01:15:58.078Z,71.22
2023-02-03T01:16:58.139Z,68.48
2023-02-03T01:17:58.050Z,72.03
2023-02-03T01:18:58.067Z,69.93
2023-02-03T01:19:58.017Z,68.64
2023-02-03T01:20:57.999Z,69.61
2023-02-03T01:21:58.101Z,68.96
2023-02-03T01:22:57.978Z,68.96
2023-02-03T01:23:57.971Z,68.64
2023-02-03T01:24:57.946Z,69.45
2023-02-03T01:25:58.950Z,69.93
2023-02-03T01:26:57.958Z,69.13
2023-02-03T01:27:57.964Z,66.87
2023-02-03T01:28:57.935Z,66.71
2023-02-03T01:29:57.903Z,68.16
2023-02-03T01:30:57.992Z,67.35
2023-02-03T01:31:58.043Z,69.13
2023-02-03T01:32:57.879Z,67.35
2023-02-03T01:33:57.877Z,68.48
2023-02-03T01:34:57.855Z,67.68
2023-02-03T01:35:57.842Z,70.42
2023-02-03T01:36:57.819Z,68.16
2023-02-03T01:37:58.814Z,69.13
2023-02-03T01:38:57.834Z,69.93
2023-02-03T01:39:57.796Z,75.73
2023-02-03T01:40:57.789Z,69.93
2023-02-03T01:41:57.790Z,69.45
2023-02-03T01:42:57.768Z,69.61
2023-02-03T01:43:57.787Z,68.96
2023-02-03T01:44:57.749Z,68.80
2023-02-03T01:45:57.755Z,69.29
2023-02-03T01:46:57.724Z,69.61
2023-02-03T01:47:57.719Z,68.48
2023-02-03T01:48:57.727Z,69.45
2023-02-03T01:49:57.726Z,67.35
2023-02-03T01:50:57.686Z,67.84
2023-02-03T01:51:57.677Z,70.42
2023-02-03T01:52:57.665Z,69.29
2023-02-03T01:53:57.718Z,68.64
2023-02-03T01:54:57.667Z,71.06
2023-02-03T01:55:57.651Z,70.58
2023-02-03T01:56:57.653Z,69.29
2023-02-03T01:57:57.632Z,70.09
2023-02-03T01:58:57.626Z,70.90
2023-02-03T01:59:57.600Z,70.42
2023-02-03T02:00:57.683Z,69.77
2023-02-03T02:01:58.596Z,68.16
2023-02-03T02:02:57.604Z,67.19
2023-02-03T02:03:57.581Z,68.80
2023-02-03T02:04:57.555Z,68.00
2023-02-03T02:05:57.534Z,68.16
2023-02-03T02:06:57.535Z,68.96
2023-02-03T02:07:57.523Z,66.23
2023-02-03T02:08:57.542Z,67.51
2023-02-03T02:09:57.508Z,66.87
2023-02-03T02:10:57.486Z,68.00
2023-02-03T02:11:57.476Z,69.93
2023-02-03T02:12:57.463Z,68.48
2023-02-03T02:13:57.502Z,68.64
2023-02-03T02:14:57.443Z,70.74
2023-02-03T02:15:57.471Z,69.77
2023-02-03T02:16:57.427Z,69.13
2023-02-03T02:17:57.434Z,70.09
2023-02-03T02:18:57.425Z,69.61
2023-02-03T02:19:57.405Z,67.84
2023-02-03T02:20:57.384Z,68.16
2023-02-03T02:21:57.371Z,67.51
2023-02-03T02:22:57.357Z,67.19
2023-02-03T02:23:57.365Z,69.61
2023-02-03T02:24:57.340Z,69.93
2023-02-03T02:25:57.336Z,70.25
2023-02-03T02:26:57.311Z,69.13
2023-02-03T02:27:57.336Z,68.80
2023-02-03T02:28:57.310Z,66.55
2023-02-03T02:29:57.277Z,66.87
2023-02-03T02:30:57.361Z,69.93
2023-02-03T02:31:57.295Z,68.00
2023-02-03T02:32:57.253Z,68.64
2023-02-03T02:33:57.265Z,68.48
2023-02-03T02:34:57.232Z,65.90
2023-02-03T02:35:57.223Z,68.48
2023-02-03T02:36:57.210Z,66.39
2023-02-03T02:37:57.215Z,68.80
2023-02-03T02:38:57.180Z,70.25
2023-02-03T02:39:57.185Z,68.32
2023-02-03T02:40:57.170Z,68.96
2023-02-03T02:41:57.150Z,67.35
2023-02-03T02:42:57.156Z,65.90
2023-02-03T02:43:58.176Z,69.29
2023-02-03T02:44:57.129Z,67.68
2023-02-03T02:45:57.131Z,64.78
2023-02-03T02:46:57.105Z,66.06
2023-02-03T02:47:57.112Z,66.23
2023-02-03T02:48:57.085Z,68.96
2023-02-03T02:49:57.090Z,67.35
2023-02-03T02:50:57.067Z,67.51
2023-02-03T02:51:57.050Z,65.58
2023-02-03T02:52:57.047Z,66.87
2023-02-03T02:53:57.036Z,65.10
2023-02-03T02:54:57.039Z,69.77
2023-02-03T02:55:57.003Z,70.09
2023-02-03T02:56:57.003Z,66.55
2023-02-03T02:57:57.035Z,68.64
2023-02-03T02:58:56.971Z,67.19
2023-02-03T02:59:56.974Z,68.48
2023-02-03T03:00:56.952Z,70.74
2023-02-03T03:01:57.090Z,68.48
2023-02-03T03:02:56.931Z,66.39
2023-02-03T03:03:56.915Z,67.68
2023-02-03T03:04:56.950Z,67.68
2023-02-03T03:05:56.928Z,69.29
2023-02-03T03:06:56.889Z,69.93
2023-02-03T03:07:56.897Z,69.93
2023-02-03T03:08:56.858Z,68.80
2023-02-03T03:09:56.876Z,69.61
2023-02-03T03:10:56.847Z,68.16
2023-02-03T03:11:56.842Z,68.16
2023-02-03T03:12:56.823Z,68.16
2023-02-03T03:13:56.809Z,69.61
2023-02-03T03:14:56.817Z,66.87
2023-02-03T03:15:56.861Z,66.23
2023-02-03T03:16:56.802Z,67.51
2023-02-03T03:17:56.767Z,68.96
2023-02-03T03:18:56.756Z,68.48
2023-02-03T03:19:56.760Z,68.80
2023-02-03T03:20:56.732Z,69.61
2023-02-03T03:21:56.722Z,71.54
2023-02-03T03:22:56.721Z,69.13
2023-02-03T03:23:56.692Z,68.96
2023-02-03T03:24:56.737Z,70.42
2023-02-03T03:25:56.670Z,68.80
2023-02-03T03:26:56.675Z,71.54
2023-02-03T03:27:56.709Z,69.93
2023-02-03T03:28:56.641Z,68.96
2023-02-03T03:29:56.681Z,69.61
2023-02-03T03:30:56.729Z,67.51
2023-02-03T03:31:56.656Z,69.61
2023-02-03T03:32:56.605Z,69.45
2023-02-03T03:33:57.414Z,71.54
2023-02-03T03:34:56.616Z,69.13
2023-02-03T03:35:56.579Z,68.16
2023-02-03T03:36:56.579Z,70.74
2023-02-03T03:37:56.560Z,70.42
2023-02-03T03:38:56.549Z,70.42
2023-02-03T03:39:56.556Z,69.61
2023-02-03T03:40:56.532Z,68.96
2023-02-03T03:41:56.513Z,69.77
2023-02-03T03:42:56.514Z,72.19
2023-02-03T03:43:56.530Z,72.51
2023-02-03T03:44:56.488Z,70.90
2023-02-03T03:45:56.482Z,71.06
2023-02-03T03:46:56.481Z,71.38
2023-02-03T03:47:56.475Z,69.61
2023-02-03T03:48:56.511Z,70.90
2023-02-03T03:49:56.477Z,72.19
2023-02-03T03:50:56.431Z,71.38
2023-02-03T03:51:56.417Z,73.15
2023-02-03T03:52:56.407Z,71.87
2023-02-03T03:53:56.399Z,69.93
2023-02-03T03:54:56.428Z,70.90
2023-02-03T03:55:56.377Z,70.90
2023-02-03T03:56:56.376Z,70.25
2023-02-03T03:57:56.355Z,71.38
2023-02-03T03:58:56.346Z,69.77
2023-02-03T03:59:56.352Z,70.42
2023-02-03T04:00:56.357Z,71.70
2023-02-03T04:01:56.424Z,71.70
2023-02-03T04:02:56.319Z,71.06
2023-02-03T04:03:56.321Z,70.74
2023-02-03T04:04:56.317Z,71.22
2023-02-03T04:05:56.281Z,71.54
2023-02-03T04:06:56.280Z,72.19
2023-02-03T04:07:56.262Z,71.06
2023-02-03T04:08:56.269Z,72.51
2023-02-03T04:09:56.265Z,71.54
2023-02-03T04:10:56.245Z,71.22
2023-02-03T04:11:56.221Z,70.58
2023-02-03T04:12:56.200Z,71.06
2023-02-03T04:13:56.194Z,72.03
2023-02-03T04:14:56.208Z,72.19
2023-02-03T04:15:56.223Z,73.48
2023-02-03T04:16:56.173Z,72.83
2023-02-03T04:17:56.155Z,73.48
2023-02-03T04:18:56.149Z,72.51
2023-02-03T04:19:56.155Z,72.35
2023-02-03T04:20:56.122Z,73.15
2023-02-03T04:21:56.122Z,72.51
2023-02-03T04:22:56.099Z,71.70
2023-02-03T04:23:56.102Z,71.22
2023-02-03T04:24:56.116Z,74.28
2023-02-03T04:25:56.067Z,71.06
2023-02-03T04:26:56.063Z,70.58
2023-02-03T04:27:56.100Z,71.22
2023-02-03T04:28:56.048Z,72.03
2023-02-03T04:29:56.050Z,70.90
2023-02-03T04:30:56.064Z,71.22
2023-02-03T04:31:56.066Z,71.70
2023-02-03T04:32:56.005Z,72.35
2023-02-03T04:33:55.990Z,71.06
2023-02-03T04:34:56.004Z,71.54
2023-02-03T04:35:55.974Z,71.70
2023-02-03T04:36:55.966Z,71.87
2023-02-03T04:37:55.949Z,72.19
2023-02-03T04:38:55.966Z,71.87
2023-02-03T04:39:55.933Z,71.54
2023-02-03T04:40:55.919Z,72.51
2023-02-03T04:41:55.903Z,72.99
2023-02-03T04:42:55.919Z,72.51
2023-02-03T04:43:55.917Z,72.03
2023-02-03T04:44:56.885Z,72.35
2023-02-03T04:45:55.969Z,70.42
2023-02-03T04:46:55.858Z,71.06
2023-02-03T04:47:55.840Z,72.51
2023-02-03T04:48:56.871Z,70.90
2023-02-03T04:49:55.847Z,70.74
2023-02-03T04:50:55.828Z,70.74
2023-02-03T04:51:55.809Z,70.90
2023-02-03T04:52:55.815Z,70.74
2023-02-03T04:53:55.783Z,72.51
2023-02-03T04:54:56.807Z,73.48
2023-02-03T04:55:55.786Z,71.54
2023-02-03T04:56:55.759Z,71.70
2023-02-03T04:57:55.791Z,70.74
2023-02-03T04:58:55.753Z,71.38
2023-02-03T04:59:55.785Z,71.87
2023-02-03T05:00:55.747Z,71.70
2023-02-03T05:01:55.714Z,71.87
2023-02-03T05:02:55.745Z,71.22
2023-02-03T05:03:55.698Z,71.54
2023-02-03T05:04:55.702Z,71.38
2023-02-03T05:05:55.676Z,71.70
2023-02-03T05:06:55.664Z,72.51
2023-02-03T05:07:55.651Z,71.87
2023-02-03T05:08:55.650Z,71.87
2023-02-03T05:09:55.650Z,73.15
2023-02-03T05:10:55.615Z,72.19
2023-02-03T05:11:55.603Z,70.90
2023-02-03T05:12:55.608Z,71.38
2023-02-03T05:13:55.608Z,72.83
2023-02-03T05:14:55.603Z,73.15
2023-02-03T05:15:55.587Z,72.51
2023-02-03T05:16:55.626Z,73.64
2023-02-03T05:17:55.550Z,73.32
2023-02-03T05:18:55.544Z,72.83
2023-02-03T05:19:55.561Z,73.64
2023-02-03T05:20:55.530Z,73.64
2023-02-03T05:21:55.519Z,74.93
2023-02-03T05:22:55.508Z,74.28
2023-02-03T05:23:55.504Z,74.12
2023-02-03T05:24:55.505Z,73.15
2023-02-03T05:25:55.485Z,73.96
2023-02-03T05:26:55.477Z,74.12
2023-02-03T05:27:55.495Z,74.28
2023-02-03T05:28:56.731Z,74.12
2023-02-03T05:29:56.455Z,73.80
2023-02-03T05:30:55.439Z,73.15
2023-02-03T05:31:55.466Z,73.80
2023-02-03T05:32:55.408Z,74.12
2023-02-03T05:33:55.396Z,74.44
2023-02-03T05:34:55.416Z,73.96
2023-02-03T05:35:55.387Z,73.64
2023-02-03T05:36:55.363Z,72.99
2023-02-03T05:37:55.360Z,73.64
2023-02-03T05:38:55.354Z,74.60
2023-02-03T05:39:55.395Z,73.48
2023-02-03T05:40:55.334Z,72.67
2023-02-03T05:41:57.301Z,75.73
2023-02-03T05:42:56.315Z,74.12
2023-02-03T05:43:55.300Z,72.51
2023-02-03T05:44:55.315Z,73.48
2023-02-03T05:45:55.301Z,73.96
2023-02-03T05:46:55.287Z,74.44
2023-02-03T05:47:55.268Z,73.80
2023-02-03T05:48:55.256Z,73.32
2023-02-03T05:49:55.252Z,74.12
2023-02-03T05:50:55.237Z,74.44
2023-02-03T05:51:55.219Z,73.96
2023-02-03T05:52:55.213Z,73.15
2023-02-03T05:53:55.206Z,73.32
2023-02-03T05:54:55.223Z,73.48
2023-02-03T05:55:55.177Z,73.15
2023-02-03T05:56:55.174Z,73.80
2023-02-03T05:57:55.163Z,72.99
2023-02-03T05:58:55.144Z,74.12
2023-02-03T05:59:55.155Z,73.32
2023-02-03T06:00:55.126Z,73.15
2023-02-03T06:01:55.110Z,73.32
2023-02-03T06:02:56.120Z,72.67
2023-02-03T06:03:55.306Z,72.67
2023-02-03T06:04:55.154Z,72.99
2023-02-03T06:05:55.092Z,72.99
2023-02-03T06:06:55.081Z,72.19
2023-02-03T06:07:55.064Z,74.28
2023-02-03T06:08:55.055Z,73.80
2023-02-03T06:09:55.065Z,74.60
2023-02-03T06:10:55.024Z,73.48
2023-02-03T06:11:55.024Z,73.48
2023-02-03T06:12:55.015Z,74.28
2023-02-03T06:13:55.009Z,74.44
2023-02-03T06:14:55.039Z,74.28
2023-02-03T06:15:55.004Z,74.28
2023-02-03T06:16:54.995Z,72.99
2023-02-03T06:17:54.956Z,73.64
2023-02-03T06:18:54.955Z,74.28
2023-02-03T06:19:54.967Z,73.64
2023-02-03T06:20:54.933Z,74.60
2023-02-03T06:21:54.918Z,75.09
2023-02-03T06:22:54.917Z,74.44
2023-02-03T06:23:54.936Z,73.64
2023-02-03T06:24:54.983Z,73.64
2023-02-03T06:25:54.879Z,73.80
2023-02-03T06:26:54.876Z,73.64
2023-02-03T06:27:54.953Z,74.77
2023-02-03T06:28:54.850Z,74.28
2023-02-03T06:29:54.886Z,77.99
2023-02-03T06:30:54.866Z,75.41
2023-02-03T06:31:54.918Z,74.12
2023-02-03T06:33:27.201Z,73.32
2023-02-03T06:33:54.802Z,74.28
2023-02-03T06:34:54.831Z,75.09
2023-02-03T06:35:54.787Z,74.28
2023-02-03T06:36:54.775Z,75.41
2023-02-03T06:37:54.763Z,75.09
2023-02-03T06:38:54.758Z,75.41
2023-02-03T06:39:54.768Z,74.93
2023-02-03T06:40:54.740Z,73.80
2023-02-03T06:41:54.738Z,73.64
2023-02-03T06:42:54.767Z,72.51
2023-02-03T06:43:54.709Z,74.93
2023-02-03T06:44:54.728Z,74.12
2023-02-03T06:45:54.757Z,73.96
2023-02-03T06:46:54.683Z,73.64
2023-02-03T06:47:54.671Z,73.48
2023-02-03T06:48:54.660Z,73.15
2023-02-03T06:49:54.664Z,73.48
2023-02-03T06:50:54.638Z,74.28
2023-02-03T06:51:54.635Z,74.12
2023-02-03T06:52:54.622Z,75.25
2023-02-03T06:53:54.612Z,73.80
2023-02-03T06:54:54.623Z,72.67
2023-02-03T06:55:54.617Z,72.51
2023-02-03T06:56:54.585Z,72.19
2023-02-03T06:57:54.575Z,73.32
2023-02-03T06:58:54.562Z,73.32
2023-02-03T06:59:54.626Z,75.73
2023-02-03T07:00:54.544Z,72.99
2023-02-03T07:01:55.529Z,72.83
2023-02-03T07:02:54.579Z,73.32
2023-02-03T07:03:54.508Z,71.54
2023-02-03T07:04:54.523Z,73.80
2023-02-03T07:05:54.486Z,72.35
2023-02-03T07:06:54.485Z,72.03
2023-02-03T07:07:54.470Z,72.19
2023-02-03T07:08:54.458Z,72.51
2023-02-03T07:09:54.461Z,72.67
2023-02-03T07:10:54.499Z,72.83
2023-02-03T07:11:54.426Z,73.32
2023-02-03T07:12:54.421Z,72.83
2023-02-03T07:13:54.421Z,72.51
2023-02-03T07:14:54.444Z,73.32
2023-02-03T07:15:55.438Z,72.51
2023-02-03T07:16:54.433Z,73.15
2023-02-03T07:17:54.789Z,72.19
2023-02-03T07:18:54.366Z,72.99
2023-02-03T07:19:54.393Z,74.28
2023-02-03T07:20:54.348Z,73.80
2023-02-03T07:21:54.336Z,72.67
2023-02-03T07:22:54.329Z,72.83
2023-02-03T07:23:54.326Z,73.96
2023-02-03T07:24:54.333Z,72.67
2023-02-03T07:25:54.296Z,73.15
2023-02-03T07:26:54.297Z,72.35
2023-02-03T07:27:54.364Z,73.64
2023-02-03T07:28:54.276Z,73.32
2023-02-03T07:29:54.305Z,72.35
2023-02-03T07:30:54.373Z,74.28
2023-02-03T07:31:54.410Z,74.44
2023-02-03T07:32:54.274Z,72.67
2023-02-03T07:33:54.224Z,74.12
2023-02-03T07:34:54.214Z,73.80
2023-02-03T07:35:54.221Z,74.28
2023-02-03T07:36:54.195Z,73.80
2023-02-03T07:37:54.181Z,71.70
2023-02-03T07:38:54.177Z,73.32
2023-02-03T07:39:54.164Z,74.12
2023-02-03T07:40:54.172Z,72.35
2023-02-03T07:41:54.137Z,72.51
2023-02-03T07:42:54.133Z,73.15
2023-02-03T07:43:54.133Z,72.99
2023-02-03T07:44:54.109Z,76.38
2023-02-03T07:45:54.126Z,76.38
2023-02-03T07:46:54.154Z,73.48
2023-02-03T07:47:54.081Z,76.22
2023-02-03T07:48:54.071Z,74.12
2023-02-03T07:49:54.062Z,72.99
2023-02-03T07:50:54.072Z,73.32
2023-02-03T07:51:54.066Z,73.15
2023-02-03T07:52:54.028Z,73.80
2023-02-03T07:53:54.026Z,74.28
2023-02-03T07:54:54.006Z,73.80
2023-02-03T07:55:54.016Z,72.99
2023-02-03T07:56:53.990Z,73.64
2023-02-03T07:57:53.975Z,72.51
2023-02-03T07:58:53.975Z,73.32
2023-02-03T07:59:53.968Z,74.28
2023-02-03T08:00:53.976Z,75.89
2023-02-03T08:01:53.978Z,74.28
2023-02-03T08:02:53.932Z,74.12
2023-02-03T08:03:55.186Z,74.28
2023-02-03T08:04:54.931Z,73.64
2023-02-03T08:05:53.926Z,73.32
2023-02-03T08:06:53.898Z,73.64
2023-02-03T08:07:53.879Z,74.60
2023-02-03T08:08:53.926Z,74.12
2023-02-03T08:09:53.860Z,73.32
2023-02-03T08:10:53.868Z,73.64
2023-02-03T08:11:53.844Z,74.77
2023-02-03T08:12:53.866Z,73.64
2023-02-03T08:13:53.818Z,74.12
2023-02-03T08:14:53.851Z,73.64
2023-02-03T08:15:53.922Z,74.28
2023-02-03T08:16:53.817Z,75.09
2023-02-03T08:17:53.793Z,74.44
2023-02-03T08:18:53.864Z,74.44
2023-02-03T08:19:53.775Z,74.28
2023-02-03T08:20:53.781Z,78.63
2023-02-03T08:21:53.756Z,82.02
2023-02-03T08:22:53.736Z,75.09
2023-02-03T08:23:53.730Z,74.12
2023-02-03T08:24:53.714Z,74.28
2023-02-03T08:25:53.736Z,83.63
2023-02-03T08:26:53.694Z,76.22
2023-02-03T08:27:53.722Z,74.77
2023-02-03T08:28:53.677Z,77.18
2023-02-03T08:29:53.687Z,74.77
2023-02-03T08:30:53.733Z,74.44
2023-02-03T08:31:53.749Z,74.93
2023-02-03T08:32:53.639Z,73.96
2023-02-03T08:33:53.629Z,74.77
2023-02-03T08:34:53.641Z,74.77
2023-02-03T08:35:53.637Z,77.34
2023-02-03T08:36:53.603Z,75.41
2023-02-03T08:37:53.587Z,75.25
2023-02-03T08:38:53.613Z,75.73
2023-02-03T08:39:53.574Z,76.54
2023-02-03T08:40:53.589Z,74.44
2023-02-03T08:41:53.551Z,74.12
2023-02-03T08:42:53.539Z,74.77
2023-02-03T08:43:53.533Z,74.93
2023-02-03T08:44:53.526Z,75.25
2023-02-03T08:45:53.718Z,75.41
2023-02-03T08:46:53.503Z,75.41
2023-02-03T08:47:53.490Z,75.73
2023-02-03T08:48:53.481Z,84.11
2023-02-03T08:49:53.489Z,77.50
2023-02-03T08:50:53.495Z,77.34
2023-02-03T08:51:53.485Z,74.93
2023-02-03T08:52:53.449Z,74.93
2023-02-03T08:53:53.436Z,75.73
2023-02-03T08:54:53.425Z,77.02
2023-02-03T08:55:53.498Z,76.22
2023-02-03T08:56:53.403Z,76.86
2023-02-03T08:57:53.390Z,74.93
2023-02-03T08:58:55.019Z,78.15
2023-02-03T08:59:53.371Z,75.89
2023-02-03T09:00:53.483Z,76.38
2023-02-03T09:01:53.364Z,75.73
2023-02-03T09:02:53.343Z,76.86
2023-02-03T09:03:53.336Z,76.22
2023-02-03T09:04:53.356Z,75.41
2023-02-03T09:05:53.326Z,75.57
2023-02-03T09:06:53.321Z,75.89
2023-02-03T09:07:53.297Z,75.57
2023-02-03T09:08:53.291Z,77.34
2023-02-03T09:09:53.289Z,76.38
2023-02-03T09:10:53.279Z,77.02
2023-02-03T09:11:53.307Z,75.89
2023-02-03T09:12:53.260Z,76.05
2023-02-03T09:13:53.245Z,75.73
2023-02-03T09:14:53.232Z,75.89
2023-02-03T09:15:53.299Z,75.25
2023-02-03T09:16:53.230Z,74.93
2023-02-03T09:17:53.201Z,74.93
2023-02-03T09:18:53.192Z,75.25
2023-02-03T09:19:53.189Z,74.12
2023-02-03T09:20:53.219Z,76.86
2023-02-03T09:21:53.163Z,77.67
2023-02-03T09:22:53.162Z,76.05
2023-02-03T09:23:53.154Z,75.41
2023-02-03T09:24:53.145Z,77.83
2023-02-03T09:25:53.158Z,76.38
2023-02-03T09:26:53.118Z,77.18
2023-02-03T09:27:53.159Z,76.22
2023-02-03T09:28:53.102Z,76.86
2023-02-03T09:29:53.086Z,77.67
2023-02-03T09:30:53.127Z,77.02
2023-02-03T09:31:53.320Z,75.25
2023-02-03T09:32:53.053Z,76.22
2023-02-03T09:33:53.052Z,77.83
2023-02-03T09:34:53.044Z,77.18
2023-02-03T09:35:53.040Z,77.18
2023-02-03T09:36:53.040Z,75.25
2023-02-03T09:37:53.007Z,76.22
2023-02-03T09:38:53.005Z,77.18
2023-02-03T09:39:52.995Z,75.41
2023-02-03T09:41:02.765Z,77.18
2023-02-03T09:41:54.964Z,76.38
2023-02-03T09:42:52.984Z,76.86
2023-02-03T09:43:52.952Z,78.31
2023-02-03T09:44:52.935Z,77.18
2023-02-03T09:45:53.008Z,75.41
2023-02-03T09:46:52.921Z,75.73
2023-02-03T09:47:52.905Z,75.73
2023-02-03T09:48:52.897Z,76.38
2023-02-03T09:49:52.886Z,76.86
2023-02-03T09:50:52.912Z,76.70
2023-02-03T09:51:52.867Z,77.83
2023-02-03T09:52:52.864Z,75.89
2023-02-03T09:53:52.862Z,76.54
2023-02-03T09:54:52.869Z,74.60
2023-02-03T09:55:52.861Z,76.05
2023-02-03T09:56:52.829Z,76.38
2023-02-03T09:57:52.805Z,76.22
2023-02-03T09:58:52.800Z,76.70
2023-02-03T09:59:52.789Z,75.89
2023-02-03T10:00:52.839Z,75.25
2023-02-03T10:01:52.778Z,75.73
2023-02-03T10:02:52.803Z,75.73
2023-02-03T10:03:52.763Z,76.54
2023-02-03T10:04:52.744Z,75.73
2023-02-03T10:05:52.782Z,75.09
2023-02-03T10:06:52.726Z,75.73
2023-02-03T10:07:52.720Z,76.86
2023-02-03T10:08:53.706Z,75.25
2023-02-03T10:09:52.689Z,74.93
2023-02-03T10:10:52.719Z,75.89
2023-02-03T10:11:52.746Z,76.86
2023-02-03T10:12:52.702Z,76.70
2023-02-03T10:13:52.649Z,76.70
2023-02-03T10:14:52.651Z,75.73
2023-02-03T10:15:52.709Z,75.73
2023-02-03T10:16:52.664Z,75.73
2023-02-03T10:17:52.617Z,75.25
2023-02-03T10:18:52.633Z,76.86
2023-02-03T10:19:52.594Z,79.12
2023-02-03T10:20:52.584Z,76.70
2023-02-03T10:21:52.598Z,76.86
2023-02-03T10:22:52.581Z,76.38
2023-02-03T10:23:52.562Z,76.86
2023-02-03T10:24:52.556Z,76.86
2023-02-03T10:25:54.094Z,75.41
2023-02-03T10:26:52.571Z,76.54
2023-02-03T10:27:52.602Z,76.05
2023-02-03T10:28:52.510Z,76.38
2023-02-03T10:29:52.510Z,77.83
2023-02-03T10:30:52.610Z,77.02
2023-02-03T10:31:52.604Z,76.86
2023-02-03T10:32:52.469Z,74.77
2023-02-03T10:33:52.456Z,75.25
2023-02-03T10:34:52.451Z,76.38
2023-02-03T10:35:52.439Z,76.22
2023-02-03T10:36:52.495Z,77.50
2023-02-03T10:37:52.443Z,77.02
2023-02-03T10:38:52.406Z,76.05
2023-02-03T10:39:52.414Z,75.89
2023-02-03T10:40:52.408Z,77.50
2023-02-03T10:41:52.423Z,76.70
2023-02-03T10:42:52.371Z,75.57
2023-02-03T10:43:52.446Z,77.50
2023-02-03T10:44:52.354Z,77.34
2023-02-03T10:45:52.425Z,75.57
2023-02-03T10:46:52.372Z,77.83
2023-02-03T10:47:52.333Z,77.18
2023-02-03T10:48:52.314Z,78.31
2023-02-03T10:49:52.300Z,82.34
2023-02-03T10:50:52.300Z,77.67
2023-02-03T10:51:52.304Z,76.38
2023-02-03T10:52:52.267Z,76.86
2023-02-03T10:53:52.264Z,77.18
2023-02-03T10:54:52.251Z,75.57
2023-02-03T10:55:52.234Z,77.34
2023-02-03T10:56:52.271Z,77.67
2023-02-03T10:57:52.242Z,74.77
2023-02-03T10:58:52.226Z,78.47
2023-02-03T10:59:52.221Z,78.31
2023-02-03T11:00:52.198Z,78.31
2023-02-03T11:01:52.244Z,77.50
2023-02-03T11:02:52.234Z,75.73
2023-02-03T11:03:52.170Z,76.05
2023-02-03T11:04:52.164Z,77.83
2023-02-03T11:05:52.170Z,78.63
2023-02-03T11:06:52.143Z,78.79
2023-02-03T11:07:52.150Z,78.96
2023-02-03T11:08:52.124Z,88.30
2023-02-03T11:09:52.133Z,87.17
2023-02-03T11:10:52.098Z,78.31
2023-02-03T11:11:52.108Z,77.18
2023-02-03T11:12:52.076Z,78.47
2023-02-03T11:13:52.069Z,77.99
2023-02-03T11:14:52.078Z,78.15
2023-02-03T11:15:52.137Z,76.38
2023-02-03T11:16:52.115Z,77.34
2023-02-03T11:17:52.030Z,77.67
2023-02-03T11:18:52.028Z,81.05
2023-02-03T11:19:52.017Z,79.12
2023-02-03T11:20:52.004Z,76.38
2023-02-03T11:21:52.015Z,78.31
2023-02-03T11:22:51.987Z,78.63
2023-02-03T11:23:51.983Z,78.63
2023-02-03T11:24:51.971Z,78.47
2023-02-03T11:25:51.953Z,79.12
2023-02-03T11:26:51.972Z,78.31
2023-02-03T11:27:51.941Z,78.96
2023-02-03T11:28:51.975Z,80.73
2023-02-03T11:29:51.912Z,78.96
2023-02-03T11:30:52.017Z,79.44
2023-02-03T11:31:52.030Z,76.70
2023-02-03T11:32:51.880Z,75.89
2023-02-03T11:33:51.888Z,75.09
2023-02-03T11:34:51.864Z,82.18
2023-02-03T11:35:51.845Z,77.02
2023-02-03T11:36:51.884Z,82.34
2023-02-03T11:37:51.844Z,83.63
2023-02-03T11:38:51.825Z,76.86
2023-02-03T11:39:51.816Z,80.57
2023-02-03T11:40:51.814Z,82.66
2023-02-03T11:41:51.829Z,78.31
2023-02-03T11:42:51.790Z,81.69
2023-02-03T11:43:51.786Z,76.70
2023-02-03T11:44:51.767Z,87.98
2023-02-03T11:45:51.765Z,80.89
2023-02-03T11:46:51.827Z,78.31
2023-02-03T11:47:51.852Z,85.24
2023-02-03T11:48:51.731Z,79.44
2023-02-03T11:49:51.723Z,81.86
2023-02-03T11:50:51.700Z,88.78
2023-02-03T11:51:51.732Z,88.62
2023-02-03T11:52:51.687Z,86.21
2023-02-03T11:53:57.225Z,82.82
2023-02-03T11:54:53.662Z,87.01
2023-02-03T11:55:51.657Z,83.31
2023-02-03T11:56:51.670Z,86.21
2023-02-03T11:57:51.644Z,78.47
2023-02-03T11:58:51.639Z,78.47
2023-02-03T11:59:51.615Z,85.24
2023-02-03T12:00:51.627Z,79.76
2023-02-03T12:01:51.645Z,86.85
2023-02-03T12:02:51.624Z,77.34
2023-02-03T12:03:51.587Z,85.40
2023-02-03T12:04:51.605Z,83.14
2023-02-03T12:05:51.574Z,77.83
2023-02-03T12:06:51.587Z,79.12
2023-02-03T12:07:51.548Z,78.63
2023-02-03T12:08:51.538Z,79.92
2023-02-03T12:09:51.535Z,77.18
2023-02-03T12:10:51.538Z,76.86
2023-02-03T12:11:51.529Z,79.44
2023-02-03T12:12:51.499Z,81.37
2023-02-03T12:13:51.513Z,78.96
2023-02-03T12:14:51.477Z,78.79
2023-02-03T12:15:51.505Z,84.59
2023-02-03T12:16:51.486Z,79.76
2023-02-03T12:17:51.448Z,79.76
2023-02-03T12:18:51.439Z,81.86
2023-02-03T12:19:51.437Z,78.15
2023-02-03T12:20:51.428Z,83.31
2023-02-03T12:21:51.437Z,83.79
2023-02-03T12:22:51.394Z,81.21
2023-02-03T12:23:52.395Z,79.44
2023-02-03T12:24:51.408Z,79.12
2023-02-03T12:25:51.377Z,78.96
2023-02-03T12:26:51.463Z,78.96
2023-02-03T12:27:51.433Z,78.79
2023-02-03T12:28:51.356Z,82.18
2023-02-03T12:29:51.333Z,84.27
2023-02-03T12:30:51.361Z,85.40
2023-02-03T12:31:51.494Z,81.86
2023-02-03T12:33:23.208Z,83.31
2023-02-03T12:33:51.393Z,79.44
2023-02-03T12:34:51.339Z,81.86
2023-02-03T12:35:51.396Z,82.66
2023-02-03T12:36:51.316Z,90.72
2023-02-03T12:37:51.258Z,87.50
2023-02-03T12:38:51.256Z,78.79
2023-02-03T12:39:51.236Z,78.79
2023-02-03T12:40:51.235Z,79.60
2023-02-03T12:41:51.273Z,79.44
2023-02-03T12:42:51.210Z,84.27
2023-02-03T12:43:51.206Z,80.24
2023-02-03T12:44:51.198Z,81.05
2023-02-03T12:45:51.258Z,79.60
2023-02-03T12:46:51.193Z,82.34
2023-02-03T12:47:51.177Z,81.69
2023-02-03T12:48:51.155Z,81.05
2023-02-03T12:49:51.137Z,81.21
2023-02-03T12:50:51.133Z,80.41
2023-02-03T12:51:51.169Z,81.05
2023-02-03T12:52:51.115Z,81.05